Time;durP1;ratioP1;P1;durP2;ratioP2;P2;SDS_P1;SDS_P2;PMS_P1;PMS_P2;Temp;Humidity;BMP_temperature;BMP_pressure;BME280_temperature;BME280_humidity;BME280_pressure;Samples;Min_cycle;Max_cycle;Signal;HPM_P1;HPM_P2
2022/11/09 00:01:09;;;;;;;6.77;2.10;;;14.60;99.90;;;;;;5053380;28;20233;-86
2022/11/09 00:03:37;;;;;;;8.13;2.17;;;14.60;99.90;;;;;;5053460;28;20213;-83
2022/11/09 00:06:07;;;;;;;4.80;1.90;;;14.60;99.90;;;;;;5053658;28;20233;-85
2022/11/09 00:08:37;;;;;;;6.90;2.40;;;14.60;99.90;;;;;;5052658;28;20437;-84
2022/11/09 00:11:10;;;;;;;6.50;2.43;;;14.60;99.90;;;;;;5053720;28;20230;-84
2022/11/09 00:13:38;;;;;;;6.83;2.13;;;14.60;99.90;;;;;;5053474;28;21175;-83
2022/11/09 00:16:07;;;;;;;7.50;2.03;;;14.60;99.90;;;;;;5053356;28;20209;-83
2022/11/09 00:18:35;;;;;;;8.23;1.90;;;14.60;99.90;;;;;;5053703;28;20206;-83
2022/11/09 00:21:06;;;;;;;5.80;2.17;;;14.60;99.90;;;;;;5056607;28;20229;-85
2022/11/09 00:23:33;;;;;;;6.20;1.90;;;14.60;99.90;;;;;;5057260;28;20207;-84
2022/11/09 00:26:03;;;;;;;6.37;1.70;;;14.60;99.90;;;;;;5057888;28;20217;-85
2022/11/09 00:28:42;;;;;;;7.67;2.03;;;14.60;99.90;;;;;;5057402;28;20708;-85
2022/11/09 00:31:17;;;;;;;7.20;1.67;;;14.60;99.90;;;;;;5057298;28;20222;-84
2022/11/09 00:33:49;;;;;;;6.20;1.70;;;14.50;99.90;;;;;;5057861;28;20205;-84
2022/11/09 00:36:19;;;;;;;5.20;1.90;;;14.50;99.90;;;;;;5057881;28;20260;-83
2022/11/09 00:38:49;;;;;;;9.32;2.88;;;14.40;99.90;;;;;;5057678;28;20905;-85
2022/11/09 00:41:18;;;;;;;9.20;2.30;;;14.40;99.90;;;;;;5057499;28;20191;-84
2022/11/09 00:43:48;;;;;;;5.73;1.70;;;14.40;99.90;;;;;;5057166;28;20187;-84
2022/11/09 00:46:17;;;;;;;7.60;1.80;;;14.40;99.90;;;;;;5057061;28;20242;-83
2022/11/09 00:48:47;;;;;;;10.43;2.60;;;14.30;99.90;;;;;;5056770;28;20206;-83
2022/11/09 00:51:14;;;;;;;8.47;2.80;;;14.30;99.90;;;;;;5056895;28;20218;-83
2022/11/09 00:53:42;;;;;;;8.37;2.57;;;14.30;99.90;;;;;;5056788;28;20210;-82
2022/11/09 00:56:12;;;;;;;8.53;2.10;;;14.20;99.90;;;;;;5056536;28;20210;-85
2022/11/09 00:58:40;;;;;;;7.80;2.10;;;14.20;99.90;;;;;;5057104;28;20206;-83
2022/11/09 01:01:12;;;;;;;7.50;2.50;;;14.30;99.90;;;;;;5057058;28;20198;-86
2022/11/09 01:03:46;;;;;;;8.17;2.87;;;14.10;99.90;;;;;;5057259;28;20553;-83
2022/11/09 01:06:17;;;;;;;12.00;2.67;;;14.10;99.90;;;;;;5056328;28;20236;-84
2022/11/09 01:08:51;;;;;;;8.53;2.87;;;14.00;99.90;;;;;;5057148;28;20190;-84
2022/11/09 01:11:22;;;;;;;7.87;2.60;;;14.00;99.90;;;;;;5056715;28;20232;-84
2022/11/09 01:13:49;;;;;;;6.47;2.00;;;14.00;99.90;;;;;;5056831;28;20284;-84
2022/11/09 01:16:23;;;;;;;6.40;2.20;;;14.00;99.90;;;;;;5056230;28;20206;-84
2022/11/09 01:18:55;;;;;;;9.93;2.70;;;14.00;99.90;;;;;;5056836;28;20243;-83
2022/11/09 01:21:22;;;;;;;6.07;2.07;;;14.00;99.90;;;;;;5056742;28;20198;-84
2022/11/09 01:23:50;;;;;;;7.23;2.10;;;13.90;99.90;;;;;;5056582;28;20660;-84
2022/11/09 01:26:18;;;;;;;7.90;2.07;;;13.90;99.90;;;;;;5056298;28;20198;-84
2022/11/09 01:28:48;;;;;;;11.23;2.63;;;13.90;99.90;;;;;;5056385;28;20638;-84
2022/11/09 01:31:18;;;;;;;7.50;1.80;;;13.90;99.90;;;;;;5056152;28;20230;-86
2022/11/09 01:33:47;;;;;;;7.17;1.83;;;13.90;99.90;;;;;;5056202;28;20202;-84
2022/11/09 01:36:22;;;;;;;8.00;2.13;;;13.90;99.90;;;;;;5056135;28;20202;-85
2022/11/09 01:38:55;;;;;;;6.10;1.83;;;13.90;99.90;;;;;;5055653;28;20411;-85
2022/11/09 01:41:26;;;;;;;5.83;2.17;;;13.90;99.90;;;;;;5055950;28;20213;-82
2022/11/09 01:44:10;;;;;;;8.70;2.10;;;14.00;99.90;;;;;;5055903;28;20198;-83
2022/11/09 01:46:43;;;;;;;8.73;2.00;;;14.00;99.90;;;;;;5055851;28;20206;-83
2022/11/09 01:49:17;;;;;;;7.00;1.90;;;13.90;99.90;;;;;;5056290;28;20576;-83
2022/11/09 01:51:50;;;;;;;7.60;2.10;;;13.90;99.90;;;;;;5055678;28;20240;-85
2022/11/09 01:54:25;;;;;;;10.93;2.57;;;13.90;99.90;;;;;;5055915;28;20194;-84
2022/11/09 01:56:56;;;;;;;9.83;1.83;;;14.00;99.90;;;;;;5056057;28;20198;-86
2022/11/09 02:05:34;;;;;;;9.37;2.13;;;13.90;99.90;;;;;;5073609;28;20205;-91
2022/11/09 02:08:06;;;;;;;6.87;2.27;;;13.90;99.90;;;;;;5091390;22;20237;-93
2022/11/09 02:11:11;;;;;;;4.70;1.87;;;13.90;99.90;;;;;;5073038;28;20226;-93
2022/11/09 02:13:48;;;;;;;9.93;2.07;;;13.80;99.90;;;;;;5058382;28;20597;-93
2022/11/09 02:16:20;;;;;;;10.10;2.93;;;13.80;99.90;;;;;;5057595;28;20704;-93
2022/11/09 02:18:53;;;;;;;5.23;2.17;;;13.80;99.90;;;;;;5057723;28;20290;-94
2022/11/09 02:21:29;;;;;;;7.50;2.43;;;13.90;99.90;;;;;;5057260;28;20716;-93
2022/11/09 02:27:19;;;;;;;7.77;2.00;;;13.80;99.90;;;;;;5057039;28;20224;-94
2022/11/09 02:30:10;;;;;;;6.83;2.20;;;13.80;99.90;;;;;;5056351;28;20198;-94
2022/11/09 02:32:39;;;;;;;8.30;2.37;;;13.70;99.90;;;;;;5057574;28;20218;-93
2022/11/09 02:35:07;;;;;;;9.07;2.70;;;13.70;99.90;;;;;;5082869;22;20244;-91
2022/11/09 02:37:47;;;;;;;8.37;1.83;;;13.80;99.90;;;;;;5075742;28;20208;-91
2022/11/09 02:40:17;;;;;;;13.67;2.30;;;13.80;99.90;;;;;;5075504;28;20667;-91
2022/11/09 02:42:45;;;;;;;7.57;2.00;;;13.70;99.90;;;;;;5074774;28;20218;-91
2022/11/09 02:45:19;;;;;;;8.77;2.17;;;13.70;99.90;;;;;;5075383;28;20213;-91
2022/11/09 02:47:51;;;;;;;6.17;2.23;;;13.80;99.90;;;;;;5075669;28;20189;-91
2022/11/09 02:50:24;;;;;;;8.33;2.00;;;13.70;99.90;;;;;;5074908;28;20202;-91
2022/11/09 02:52:58;;;;;;;9.73;2.47;;;13.60;99.90;;;;;;5074452;28;20236;-92
2022/11/09 02:55:28;;;;;;;9.90;2.70;;;13.50;99.90;;;;;;5075355;28;20863;-91
2022/11/09 02:57:58;;;;;;;8.13;2.27;;;13.60;99.90;;;;;;5074771;28;20656;-91
2022/11/09 03:00:56;;;;;;;6.93;2.00;;;13.60;99.90;;;;;;5074875;28;20205;-92
2022/11/09 03:03:26;;;;;;;9.13;2.10;;;13.50;99.90;;;;;;5075087;28;20210;-91
2022/11/09 03:05:56;;;;;;;10.67;2.77;;;13.60;99.90;;;;;;5075087;28;20209;-91
2022/11/09 03:08:27;;;;;;;9.30;2.00;;;13.60;99.90;;;;;;5060591;28;20242;-91
2022/11/09 03:10:56;;;;;;;8.43;2.33;;;13.50;99.90;;;;;;5054934;28;20209;-92
2022/11/09 03:13:28;;;;;;;12.57;2.77;;;13.60;99.90;;;;;;5054765;28;20202;-91
2022/11/09 03:15:58;;;;;;;7.57;1.93;;;13.60;99.90;;;;;;5055072;28;20668;-92
2022/11/09 03:18:31;;;;;;;5.57;1.67;;;13.60;99.90;;;;;;5054391;28;20206;-92
2022/11/09 03:21:06;;;;;;;8.20;2.20;;;13.60;99.90;;;;;;5054662;28;20201;-90
2022/11/09 03:23:40;;;;;;;9.77;2.33;;;13.50;99.90;;;;;;5055267;28;20209;-91
2022/11/09 03:26:34;;;;;;;7.50;2.27;;;13.50;99.90;;;;;;5054847;28;20194;-91
2022/11/09 03:29:07;;;;;;;7.83;2.10;;;13.50;99.90;;;;;;5054394;28;20198;-91
2022/11/09 03:31:37;;;;;;;8.23;2.27;;;13.50;99.90;;;;;;5054537;28;20276;-90
2022/11/09 03:34:10;;;;;;;12.50;2.63;;;13.40;99.90;;;;;;5054777;28;20236;-91
2022/11/09 03:36:37;;;;;;;5.20;1.63;;;13.40;99.90;;;;;;5054035;28;20217;-91
2022/11/09 03:39:05;;;;;;;10.23;2.27;;;13.40;99.90;;;;;;5050396;28;20210;-91
2022/11/09 03:41:55;;;;;;;10.03;2.53;;;13.30;99.90;;;;;;5047512;28;20217;-91
2022/11/09 03:44:25;;;;;;;8.27;2.53;;;13.30;99.90;;;;;;5039083;28;20205;-90
2022/11/09 03:46:57;;;;;;;9.47;2.23;;;13.30;99.90;;;;;;5054360;28;20205;-90
2022/11/09 03:49:27;;;;;;;8.77;2.20;;;13.20;99.90;;;;;;5053796;28;20254;-90
2022/11/09 03:51:57;;;;;;;8.60;2.30;;;13.30;99.90;;;;;;5053450;28;20237;-91
2022/11/09 03:54:25;;;;;;;9.83;2.00;;;13.20;99.90;;;;;;5055648;28;20219;-90
2022/11/09 03:56:57;;;;;;;12.17;2.60;;;13.20;99.90;;;;;;5058760;28;20220;-91
2022/11/09 03:59:36;;;;;;;11.97;2.40;;;13.20;99.90;;;;;;5058362;28;20205;-91
2022/11/09 04:02:23;;;;;;;8.90;2.57;;;13.10;99.90;;;;;;5058130;28;20220;-91
2022/11/09 04:04:51;;;;;;;10.47;2.70;;;13.10;99.90;;;;;;5058003;28;20209;-91
2022/11/09 04:07:20;;;;;;;5.47;1.90;;;13.10;99.90;;;;;;5057192;28;20233;-91
2022/11/09 04:13:10;;;;;;;9.95;3.08;;;13.00;99.90;;;;;;5057070;28;20553;-91
2022/11/09 04:15:37;;;;;;;8.60;2.50;;;13.00;99.90;;;;;;5044532;28;20203;-91
2022/11/09 04:18:04;;;;;;;6.10;2.30;;;13.10;99.90;;;;;;5041358;28;20214;-92
2022/11/09 04:20:44;;;;;;;8.80;2.20;;;13.00;99.90;;;;;;5052684;28;20201;-91
2022/11/09 04:23:12;;;;;;;10.33;2.87;;;13.00;99.90;;;;;;5056133;28;20213;-90
2022/11/09 04:25:41;;;;;;;9.77;2.90;;;13.00;99.90;;;;;;5058457;28;20198;-91
2022/11/09 04:28:12;;;;;;;12.17;2.60;;;13.00;99.90;;;;;;5057596;28;20205;-91
2022/11/09 04:30:39;;;;;;;7.23;2.07;;;13.00;99.90;;;;;;5045020;28;20630;-91
2022/11/09 04:33:07;;;;;;;9.10;2.10;;;13.10;99.90;;;;;;5060759;28;20221;-91
2022/11/09 04:35:34;;;;;;;9.27;2.23;;;13.00;99.90;;;;;;5057568;28;20219;-91
2022/11/09 04:38:06;;;;;;;5.50;2.20;;;13.00;99.90;;;;;;5057659;28;20209;-91
2022/11/09 04:41:10;;;;;;;12.40;2.40;;;12.90;99.90;;;;;;5057640;28;20225;-92
2022/11/09 04:43:41;;;;;;;8.57;2.47;;;12.90;99.90;;;;;;5057629;28;20213;-91
2022/11/09 04:46:11;;;;;;;8.93;2.70;;;12.90;99.90;;;;;;5057855;28;20202;-91
2022/11/09 04:48:42;;;;;;;9.07;2.83;;;12.90;99.90;;;;;;5057058;28;20209;-91
2022/11/09 04:51:11;;;;;;;8.97;2.20;;;12.90;99.90;;;;;;5057504;28;20216;-91
2022/11/09 04:53:39;;;;;;;9.00;2.80;;;12.90;99.90;;;;;;5057113;28;20214;-91
2022/11/09 04:56:07;;;;;;;15.33;2.40;;;12.80;99.90;;;;;;5057126;28;20221;-91
2022/11/09 04:58:41;;;;;;;8.73;2.70;;;12.80;99.90;;;;;;5057088;28;20213;-91
2022/11/09 05:01:14;;;;;;;7.43;2.03;;;12.90;99.90;;;;;;5056931;28;20221;-91
2022/11/09 05:03:44;;;;;;;9.37;2.43;;;12.80;99.90;;;;;;5057032;28;20220;-90
2022/11/09 05:06:32;;;;;;;5.80;2.03;;;12.90;99.90;;;;;;5056364;28;20208;-90
2022/11/09 05:09:03;;;;;;;9.20;2.43;;;12.90;99.90;;;;;;5057154;28;20667;-90
2022/11/09 05:11:36;;;;;;;11.97;2.77;;;13.10;99.90;;;;;;5043526;28;20219;-90
2022/11/09 05:14:10;;;;;;;8.65;2.65;;;13.00;99.90;;;;;;5056309;28;20454;-90
2022/11/09 05:17:02;;;;;;;14.03;2.47;;;12.90;99.90;;;;;;5056767;28;20217;-90
2022/11/09 05:19:34;;;;;;;8.07;2.47;;;12.90;99.90;;;;;;5056689;28;20205;-90
2022/11/09 05:23:57;;;;;;;9.53;2.40;;;12.80;99.90;;;;;;5057321;28;20209;-90
2022/11/09 05:24:51;;;;;;;9.93;2.20;;;12.80;99.90;;;;;;5057504;28;20267;-90
2022/11/09 05:27:19;;;;;;;5.90;2.17;;;12.80;99.90;;;;;;5058297;28;20350;-90
2022/11/09 05:29:47;;;;;;;13.90;2.53;;;12.70;99.90;;;;;;5058377;28;20205;-90
2022/11/09 05:32:14;;;;;;;6.77;2.20;;;12.70;99.90;;;;;;5058281;28;20234;-90
2022/11/09 05:34:41;;;;;;;10.07;2.23;;;12.70;99.90;;;;;;5059945;28;20216;-91
2022/11/09 05:37:11;;;;;;;6.73;2.60;;;12.70;99.90;;;;;;5044262;28;20220;-89
2022/11/09 05:39:40;;;;;;;11.47;2.60;;;12.60;99.90;;;;;;5056713;28;20289;-90
2022/11/09 05:42:13;;;;;;;9.33;2.63;;;12.60;99.90;;;;;;5056523;28;20679;-89
2022/11/09 05:44:47;;;;;;;11.13;2.77;;;12.60;99.90;;;;;;5056358;28;20652;-90
2022/11/09 05:47:13;;;;;;;12.10;2.90;;;12.60;99.90;;;;;;5059893;28;20243;-90
2022/11/09 05:49:46;;;;;;;7.57;2.60;;;12.60;99.90;;;;;;5059792;28;20202;-90
2022/11/09 05:52:15;;;;;;;8.13;2.57;;;12.50;99.90;;;;;;5061671;28;20230;-92
2022/11/09 05:54:45;;;;;;;9.10;2.87;;;12.60;99.90;;;;;;5044954;28;20215;-90
2022/11/09 05:57:18;;;;;;;10.03;2.30;;;12.70;99.90;;;;;;5074119;28;20202;-90
2022/11/09 05:59:47;;;;;;;12.83;2.67;;;12.60;99.90;;;;;;5065724;28;20213;-91
2022/11/09 06:02:15;;;;;;;8.97;2.40;;;12.70;99.90;;;;;;5063601;28;20213;-92
2022/11/09 06:04:44;;;;;;;8.63;2.40;;;12.50;99.90;;;;;;5059120;28;20213;-91
2022/11/09 06:07:22;;;;;;;7.73;2.53;;;12.50;99.90;;;;;;5056243;28;20233;-91
2022/11/09 06:09:56;;;;;;;7.90;2.47;;;12.60;99.90;;;;;;5058228;28;20205;-91
2022/11/09 06:12:24;;;;;;;10.90;2.73;;;12.50;99.90;;;;;;5058340;28;20235;-92
2022/11/09 06:14:56;;;;;;;9.40;2.80;;;12.50;99.90;;;;;;5057788;28;20539;-90
2022/11/09 06:17:26;;;;;;;10.13;2.70;;;12.50;99.90;;;;;;5056608;28;20467;-91
2022/11/09 06:19:53;;;;;;;7.37;2.37;;;12.50;99.90;;;;;;5058025;28;20209;-91
2022/11/09 06:22:23;;;;;;;8.43;2.33;;;12.70;99.90;;;;;;5057810;28;20201;-91
2022/11/09 06:24:50;;;;;;;9.70;2.40;;;12.60;99.90;;;;;;5055982;28;20197;-91
2022/11/09 06:27:20;;;;;;;9.13;2.47;;;12.60;99.90;;;;;;5055937;28;20213;-91
2022/11/09 06:29:48;;;;;;;7.43;2.13;;;12.60;99.90;;;;;;5055070;28;20679;-91
2022/11/09 06:32:34;;;;;;;9.90;2.60;;;12.60;99.90;;;;;;5057315;28;20228;-91
2022/11/09 06:35:01;;;;;;;6.17;2.30;;;12.50;99.90;;;;;;5063418;28;20197;-91
2022/11/09 06:37:28;;;;;;;14.83;2.43;;;12.40;99.90;;;;;;5063224;28;20202;-92
2022/11/09 06:39:55;;;;;;;6.60;2.10;;;12.40;99.90;;;;;;5061544;28;20206;-91
2022/11/09 06:42:23;;;;;;;12.23;2.83;;;12.50;99.90;;;;;;5054438;28;20219;-91
2022/11/09 06:44:49;;;;;;;6.93;1.93;;;12.40;99.90;;;;;;5054840;28;20205;-92
2022/11/09 06:47:16;;;;;;;10.03;2.63;;;12.50;99.90;;;;;;5054714;28;20208;-91
2022/11/09 06:49:44;;;;;;;11.17;2.40;;;12.30;99.90;;;;;;5055128;28;20202;-92
2022/11/09 06:52:11;;;;;;;11.30;2.40;;;12.30;99.90;;;;;;5054991;28;20240;-92
2022/11/09 06:54:38;;;;;;;4.20;2.00;;;12.30;99.90;;;;;;5054617;28;20675;-92
2022/11/09 06:57:05;;;;;;;10.20;2.30;;;12.40;99.90;;;;;;5054552;28;20219;-92
2022/11/09 06:59:33;;;;;;;11.80;2.50;;;12.40;99.90;;;;;;5054809;28;20193;-91
2022/11/09 07:01:59;;;;;;;7.77;2.27;;;12.30;99.90;;;;;;5054677;28;20266;-92
2022/11/09 07:04:26;;;;;;;8.63;2.40;;;12.30;99.90;;;;;;5054374;28;20208;-92
2022/11/09 07:06:54;;;;;;;9.90;2.50;;;12.30;99.90;;;;;;5038114;28;20227;-92
2022/11/09 07:09:27;;;;;;;7.37;2.53;;;12.40;99.90;;;;;;5076377;28;20214;-91
2022/11/09 07:11:54;;;;;;;15.80;2.63;;;12.30;99.90;;;;;;5080821;28;20215;-91
2022/11/09 07:14:22;;;;;;;7.40;2.07;;;12.30;99.90;;;;;;5064596;28;20213;-92
2022/11/09 07:16:49;;;;;;;9.13;2.50;;;12.20;99.90;;;;;;5063183;28;20214;-90
2022/11/09 07:19:15;;;;;;;9.90;2.33;;;12.20;99.90;;;;;;5062735;28;20205;-90
2022/11/09 07:21:42;;;;;;;9.23;2.47;;;12.20;99.90;;;;;;5065241;28;20210;-90
2022/11/09 07:24:10;;;;;;;13.50;2.57;;;12.20;99.90;;;;;;5059516;28;20541;-90
2022/11/09 07:26:37;;;;;;;11.93;2.50;;;12.20;99.90;;;;;;5064876;28;20192;-91
2022/11/09 07:29:04;;;;;;;7.73;1.93;;;12.20;99.90;;;;;;5072993;28;20208;-91
2022/11/09 07:31:31;;;;;;;11.83;2.83;;;12.20;99.90;;;;;;5073955;28;20552;-91
2022/11/09 07:34:03;;;;;;;7.93;2.07;;;12.20;99.90;;;;;;5063306;28;20243;-87
2022/11/09 07:36:30;;;;;;;9.97;2.13;;;12.20;99.90;;;;;;5063382;28;20218;-88
2022/11/09 07:38:57;;;;;;;6.63;3.10;;;12.20;99.90;;;;;;5070249;28;20192;-88
2022/11/09 07:41:25;;;;;;;13.80;2.97;;;12.20;99.90;;;;;;5067182;28;20211;-88
2022/11/09 07:43:52;;;;;;;3.57;1.70;;;12.20;99.90;;;;;;5059030;28;20662;-88
2022/11/09 07:46:19;;;;;;;10.60;2.30;;;12.20;99.90;;;;;;5063066;28;20211;-87
2022/11/09 07:48:45;;;;;;;12.23;2.83;;;12.30;99.90;;;;;;5062693;28;20437;-87
2022/11/09 07:51:12;;;;;;;8.03;2.40;;;12.30;99.90;;;;;;5063036;28;20205;-87
2022/11/09 07:53:40;;;;;;;7.77;2.30;;;12.30;99.90;;;;;;5060280;28;20220;-87
2022/11/09 07:56:07;;;;;;;6.67;2.10;;;12.30;99.90;;;;;;5053532;28;20205;-87
2022/11/09 07:58:35;;;;;;;5.70;1.90;;;12.30;99.90;;;;;;5053437;28;20675;-87
2022/11/09 08:01:07;;;;;;;8.73;2.20;;;12.30;99.90;;;;;;5053454;28;20209;-87
2022/11/09 08:03:34;;;;;;;8.97;2.40;;;12.40;99.90;;;;;;5052862;28;20205;-87
2022/11/09 08:06:03;;;;;;;11.87;2.30;;;12.40;99.90;;;;;;5034100;28;20209;-87
2022/11/09 08:08:30;;;;;;;9.30;2.27;;;12.40;99.90;;;;;;5057502;28;20590;-86
2022/11/09 08:11:03;;;;;;;7.40;1.90;;;12.50;99.90;;;;;;5066711;28;20211;-87
2022/11/09 08:13:33;;;;;;;10.30;2.10;;;12.50;99.90;;;;;;5063868;28;20323;-87
2022/11/09 08:16:03;;;;;;;8.80;2.60;;;12.60;99.90;;;;;;5064262;28;20209;-87
2022/11/09 08:18:30;;;;;;;6.60;1.93;;;12.50;99.90;;;;;;5064429;28;20227;-87
2022/11/09 08:21:02;;;;;;;8.67;2.10;;;12.60;99.90;;;;;;5064128;28;20210;-87
2022/11/09 08:23:29;;;;;;;9.17;2.10;;;12.60;99.90;;;;;;5058888;28;20213;-87
2022/11/09 08:25:56;;;;;;;9.10;2.37;;;12.50;99.90;;;;;;5052980;28;20212;-87
2022/11/09 08:28:23;;;;;;;8.20;2.80;;;12.60;99.90;;;;;;5052900;28;20568;-86
2022/11/09 08:30:56;;;;;;;6.13;1.90;;;12.60;99.90;;;;;;5052988;28;20209;-86
2022/11/09 08:33:25;;;;;;;8.77;1.90;;;12.50;99.90;;;;;;5052888;28;20239;-86
2022/11/09 08:35:51;;;;;;;6.50;1.90;;;12.60;99.90;;;;;;5053026;28;20219;-87
2022/11/09 08:38:18;;;;;;;9.77;2.10;;;12.60;99.90;;;;;;5053025;28;20653;-86
2022/11/09 08:40:45;;;;;;;9.40;2.50;;;12.70;99.90;;;;;;5064718;28;20198;-87
2022/11/09 08:43:13;;;;;;;10.03;2.03;;;12.60;99.90;;;;;;5066181;28;20205;-88
2022/11/09 08:45:41;;;;;;;9.23;1.80;;;12.60;99.90;;;;;;5068064;28;20549;-86
2022/11/09 08:48:10;;;;;;;8.77;2.20;;;12.70;99.90;;;;;;5069504;28;20205;-87
2022/11/09 08:50:38;;;;;;;7.57;2.00;;;12.50;99.90;;;;;;5064571;28;20209;-87
2022/11/09 08:53:07;;;;;;;8.00;2.13;;;12.50;99.90;;;;;;5062403;28;20726;-86
2022/11/09 08:55:36;;;;;;;10.20;2.70;;;12.60;99.90;;;;;;5065671;28;20292;-87
2022/11/09 08:58:03;;;;;;;8.10;2.13;;;12.70;99.90;;;;;;5065520;28;20204;-86
2022/11/09 09:00:30;;;;;;;9.13;2.20;;;12.70;99.90;;;;;;5062528;28;20201;-87
2022/11/09 09:03:02;;;;;;;9.40;2.00;;;12.80;99.90;;;;;;5044381;28;20206;-87
2022/11/09 09:05:30;;;;;;;11.33;2.70;;;12.70;99.90;;;;;;5063436;28;20695;-86
2022/11/09 09:08:01;;;;;;;5.97;1.90;;;12.80;99.90;;;;;;5066756;28;20221;-87
2022/11/09 09:10:28;;;;;;;9.53;2.80;;;12.80;99.90;;;;;;5057475;28;20629;-85
2022/11/09 09:12:56;;;;;;;5.00;1.90;;;12.90;99.90;;;;;;5056209;28;20221;-88
2022/11/09 09:15:23;;;;;;;10.60;1.90;;;13.00;99.90;;;;;;5061541;28;20553;-87
2022/11/09 09:17:50;;;;;;;7.27;2.10;;;13.00;99.90;;;;;;5067841;28;20194;-88
2022/11/09 09:20:17;;;;;;;9.37;2.40;;;12.90;99.90;;;;;;5065415;28;20204;-88
2022/11/09 09:22:50;;;;;;;9.52;2.45;;;13.00;99.90;;;;;;5072689;28;20459;-87
2022/11/09 09:25:19;;;;;;;5.80;1.80;;;13.00;99.90;;;;;;5076477;28;20290;-87
2022/11/09 09:27:46;;;;;;;8.47;2.00;;;13.10;99.90;;;;;;5076419;28;20213;-88
2022/11/09 09:30:13;;;;;;;8.50;1.87;;;13.20;99.90;;;;;;5076530;28;20217;-87
2022/11/09 09:32:40;;;;;;;10.00;2.47;;;13.20;99.90;;;;;;5077076;28;20206;-88
2022/11/09 09:35:07;;;;;;;11.67;2.10;;;13.20;99.90;;;;;;5076656;28;20678;-88
2022/11/09 09:37:34;;;;;;;7.97;2.40;;;13.30;99.90;;;;;;5076058;28;20205;-87
2022/11/09 09:40:01;;;;;;;11.10;2.00;;;13.40;99.90;;;;;;5076947;28;20300;-87
2022/11/09 09:42:32;;;;;;;7.63;2.17;;;13.50;99.90;;;;;;5076781;28;20201;-88
2022/11/09 09:45:02;;;;;;;9.93;2.10;;;13.60;99.90;;;;;;5078158;28;20190;-87
2022/11/09 09:47:49;;;;;;;6.33;1.67;;;13.80;99.90;;;;;;5076531;28;20206;-87
2022/11/09 09:50:21;;;;;;;5.63;2.00;;;13.80;99.90;;;;;;5076737;28;20212;-88
2022/11/09 09:52:55;;;;;;;11.60;1.80;;;13.80;99.90;;;;;;5075919;28;20193;-88
2022/11/09 09:55:26;;;;;;;10.83;2.27;;;13.60;99.90;;;;;;5076753;28;20205;-87
2022/11/09 09:57:56;;;;;;;9.67;1.87;;;13.70;99.90;;;;;;5083528;28;20201;-88
2022/11/09 10:00:26;;;;;;;4.43;1.90;;;13.60;99.90;;;;;;5079397;28;20201;-88
2022/11/09 10:02:53;;;;;;;10.70;2.00;;;13.60;99.90;;;;;;5082199;28;20254;-87
2022/11/09 10:05:28;;;;;;;7.63;2.10;;;13.60;99.90;;;;;;5058443;28;20190;-88
2022/11/09 10:08:05;;;;;;;7.90;2.13;;;13.70;99.90;;;;;;5075488;28;20225;-88
2022/11/09 10:10:43;;;;;;;11.43;2.60;;;13.70;99.90;;;;;;5075223;28;20656;-87
2022/11/09 10:13:30;;;;;;;9.03;2.30;;;13.70;99.90;;;;;;5075290;28;20214;-87
2022/11/09 10:16:06;;;;;;;8.57;2.10;;;13.70;99.90;;;;;;5075003;28;20289;-84
2022/11/09 10:18:41;;;;;;;8.73;2.30;;;13.80;99.90;;;;;;5074960;28;20201;-86
2022/11/09 10:21:20;;;;;;;7.63;2.50;;;13.80;99.90;;;;;;5074539;28;20640;-86
2022/11/09 10:24:06;;;;;;;10.90;2.33;;;13.90;99.90;;;;;;5075284;28;20190;-86
2022/11/09 10:26:41;;;;;;;9.27;2.43;;;13.90;99.90;;;;;;5076756;28;20217;-87
2022/11/09 10:29:20;;;;;;;9.33;2.37;;;14.00;99.90;;;;;;5076353;28;20678;-86
2022/11/09 10:31:50;;;;;;;7.67;2.00;;;14.10;99.90;;;;;;5075374;28;20202;-87
2022/11/09 10:34:19;;;;;;;8.00;2.00;;;14.10;99.90;;;;;;5076048;28;20226;-87
2022/11/09 10:36:56;;;;;;;8.97;1.77;;;14.10;99.90;;;;;;5075088;28;20235;-87
2022/11/09 10:39:26;;;;;;;8.00;2.53;;;14.10;99.90;;;;;;5075432;28;20603;-87
2022/11/09 10:41:53;;;;;;;8.70;1.93;;;14.10;99.90;;;;;;5074449;28;20206;-87
2022/11/09 10:44:21;;;;;;;10.13;2.30;;;14.20;99.90;;;;;;5074750;28;20186;-87
2022/11/09 10:47:06;;;;;;;8.03;2.00;;;14.20;99.90;;;;;;5074349;28;20202;-87
2022/11/09 10:49:34;;;;;;;9.97;1.83;;;14.30;99.90;;;;;;5074609;28;20202;-87
2022/11/09 10:52:01;;;;;;;7.03;2.33;;;14.20;99.90;;;;;;5074133;28;20703;-87
2022/11/09 10:54:32;;;;;;;7.32;2.35;;;14.30;99.90;;;;;;5073940;28;20443;-87
2022/11/09 10:57:04;;;;;;;6.73;1.60;;;14.40;99.90;;;;;;5081664;28;20239;-88
2022/11/09 10:59:44;;;;;;;7.10;2.13;;;14.40;99.90;;;;;;5074509;28;20208;-88
2022/11/09 11:02:43;;;;;;;9.57;2.00;;;14.30;99.90;;;;;;5074904;28;20209;-87
2022/11/09 11:05:40;;;;;;;8.70;2.07;;;14.40;99.90;;;;;;5074300;28;20209;-87
2022/11/09 11:08:33;;;;;;;9.50;1.80;;;14.30;99.90;;;;;;5012982;28;20235;-88
2022/11/09 11:11:23;;;;;;;8.87;2.10;;;14.20;99.90;;;;;;5071708;28;20212;-88
2022/11/09 11:13:53;;;;;;;9.60;1.93;;;14.00;99.90;;;;;;5062274;28;20233;-88
2022/11/09 11:16:28;;;;;;;9.37;2.63;;;13.90;99.90;;;;;;5063611;28;20202;-87
2022/11/09 11:18:58;;;;;;;5.70;1.83;;;13.80;99.90;;;;;;5074623;28;20201;-88
2022/11/09 11:21:27;;;;;;;7.87;1.90;;;13.80;99.90;;;;;;5075446;28;20210;-88
2022/11/09 11:24:17;;;;;;;6.33;1.83;;;13.90;99.90;;;;;;5075332;28;20206;-88
2022/11/09 11:26:55;;;;;;;10.13;1.83;;;13.90;99.90;;;;;;5056669;28;20208;-90
2022/11/09 11:29:35;;;;;;;7.43;2.20;;;14.00;99.90;;;;;;5074762;28;20201;-89
2022/11/09 11:32:09;;;;;;;8.60;2.10;;;14.00;99.90;;;;;;5074503;28;20201;-89
2022/11/09 11:34:39;;;;;;;13.27;2.47;;;14.00;99.90;;;;;;5074434;28;20221;-90
2022/11/09 11:37:21;;;;;;;11.73;2.20;;;14.00;99.90;;;;;;5074270;28;20213;-90
2022/11/09 11:40:01;;;;;;;10.57;1.60;;;14.00;99.90;;;;;;5074727;28;20206;-88
2022/11/09 11:42:54;;;;;;;8.53;2.00;;;14.00;99.90;;;;;;5079395;28;20185;-87
2022/11/09 11:45:31;;;;;;;6.77;2.00;;;14.10;99.90;;;;;;5075798;28;20206;-88
2022/11/09 11:48:17;;;;;;;7.20;1.97;;;14.10;99.90;;;;;;5074515;28;20251;-88
2022/11/09 11:50:48;;;;;;;9.70;2.43;;;13.90;99.90;;;;;;5073862;28;20218;-88
2022/11/09 11:53:28;;;;;;;6.47;1.80;;;13.80;99.90;;;;;;5068334;28;20198;-86
2022/11/09 11:56:10;;;;;;;8.27;2.78;;;13.70;99.90;;;;;;5058667;28;20428;-89
2022/11/09 11:58:49;;;;;;;7.83;2.30;;;13.60;99.90;;;;;;5052316;28;20198;-88
2022/11/09 12:01:40;;;;;;;4.40;1.93;;;13.40;99.90;;;;;;5047291;28;20198;-88
2022/11/09 12:04:21;;;;;;;8.83;1.80;;;13.30;99.90;;;;;;5044202;28;20208;-88
2022/11/09 12:07:10;;;;;;;7.13;2.00;;;13.30;99.90;;;;;;5040458;28;20778;-89
2022/11/09 12:09:50;;;;;;;7.17;1.70;;;13.30;99.90;;;;;;5047052;28;20661;-89
2022/11/09 12:12:35;;;;;;;5.27;1.40;;;13.20;99.90;;;;;;5044486;28;20213;-90
2022/11/09 12:15:23;;;;;;;4.00;1.90;;;13.30;99.90;;;;;;5053775;28;20233;-89
2022/11/09 12:17:59;;;;;;;6.13;1.30;;;13.40;99.90;;;;;;5057571;28;20210;-89
2022/11/09 12:20:35;;;;;;;5.27;1.73;;;13.40;99.90;;;;;;5057831;28;20220;-89
2022/11/09 12:23:12;;;;;;;3.83;1.17;;;13.50;99.90;;;;;;5057683;28;20207;-90
2022/11/09 12:25:46;;;;;;;6.80;1.10;;;13.50;99.90;;;;;;5057716;28;20202;-88
2022/11/09 12:28:45;;;;;;;1.53;1.03;;;13.50;99.90;;;;;;5057995;28;20201;-88
2022/11/09 12:31:24;;;;;;;3.37;1.20;;;13.60;99.90;;;;;;5057533;28;20203;-86
2022/11/09 12:33:58;;;;;;;3.23;1.17;;;13.70;99.90;;;;;;5043107;28;20710;-87
2022/11/09 12:36:33;;;;;;;5.83;1.40;;;13.70;99.90;;;;;;5057305;28;20221;-88
2022/11/09 12:39:11;;;;;;;2.13;0.83;;;13.80;99.90;;;;;;5059749;28;20198;-88
2022/11/09 12:41:39;;;;;;;3.23;1.30;;;13.90;99.90;;;;;;5058286;28;20205;-88
2022/11/09 12:44:14;;;;;;;3.07;1.47;;;14.00;99.90;;;;;;5057106;28;20222;-90
2022/11/09 12:46:53;;;;;;;5.30;1.87;;;13.90;99.90;;;;;;5057179;28;20254;-89
2022/11/09 12:49:36;;;;;;;4.23;1.80;;;13.90;99.90;;;;;;5045369;28;20213;-88
2022/11/09 12:52:06;;;;;;;1.53;1.10;;;13.90;99.90;;;;;;5057140;28;20237;-88
2022/11/09 12:54:36;;;;;;;4.63;1.27;;;13.90;99.90;;;;;;5056836;28;20234;-90
2022/11/09 12:57:06;;;;;;;6.65;1.50;;;13.90;99.90;;;;;;5057280;28;20444;-87
2022/11/09 12:59:45;;;;;;;6.27;1.83;;;14.00;99.90;;;;;;5057472;28;20198;-88
2022/11/09 13:02:23;;;;;;;11.17;2.00;;;14.00;99.90;;;;;;5056947;28;20233;-88
2022/11/09 13:04:59;;;;;;;7.07;1.83;;;14.00;99.90;;;;;;5057282;28;20210;-88
2022/11/09 13:07:48;;;;;;;7.23;2.00;;;14.10;99.90;;;;;;5056862;28;20230;-87
2022/11/09 13:10:40;;;;;;;9.00;2.07;;;14.10;99.90;;;;;;5057000;28;20749;-87
2022/11/09 13:13:21;;;;;;;9.70;1.90;;;14.10;99.90;;;;;;5057645;28;20241;-89
2022/11/09 13:16:06;;;;;;;7.33;1.80;;;14.10;99.90;;;;;;5057528;28;20230;-89
2022/11/09 13:18:52;;;;;;;8.10;2.50;;;14.20;99.90;;;;;;5058921;28;20673;-89
2022/11/09 13:21:40;;;;;;;12.30;2.00;;;14.20;99.90;;;;;;5059151;28;20279;-87
2022/11/09 13:24:54;;;;;;;2.90;1.50;;;14.30;99.90;;;;;;5055663;28;20225;-89
2022/11/09 13:27:43;;;;;;;6.17;2.03;;;14.30;99.90;;;;;;5047930;28;20206;-87